Time,TemperatureF,DewpointF,PressureIn,WindDirection,WindDirectionDegrees,WindSpeedMPH,WindSpeedGustMPH,Humidity,HourlyPrecipIn,Conditions,Clouds,dailyrainin,SoftwareType,DateUTC
2013-02-17 08:01:00,36.0,35.0,30.00,ENE,67,0.0,0.0,97,0.00,,,0.00,,2013-02-17 16:01:00,
2013-02-17 08:11:00,36.0,35.0,30.00,ENE,67,0.0,0.0,97,0.00,,,0.00,,2013-02-17 16:11:00,
2013-02-17 08:21:00,36.0,35.0,30.00,NE,50,0.0,0.0,97,0.00,,,0.00,,2013-02-17 16:21:00,
2013-02-17 08:31:00,37.0,36.0,30.00,NE,50,0.0,0.0,98,0.00,,,0.00,,2013-02-17 16:31:00,
2013-02-17 08:41:00,37.0,36.0,30.00,NE,50,0.0,0.0,98,0.00,,,0.00,,2013-02-17 16:41:00,
2013-02-17 08:51:00,39.0,38.0,30.00,ENE,71,0.0,0.0,98,0.00,,,0.00,,2013-02-17 16:51:00,
2013-02-17 09:02:00,40.0,39.0,30.00,North,360,0.0,0.0,97,0.00,,,0.00,,2013-02-17 17:02:00,
2013-02-17 09:11:00,40.0,39.0,30.00,North,360,0.0,0.0,97,0.00,,,0.00,,2013-02-17 17:11:00,
2013-02-17 09:21:00,42.0,40.0,30.01,SSE,154,0.0,2.0,93,0.00,,,0.00,,2013-02-17 17:21:00,
2013-02-17 09:31:00,44.0,40.0,30.01,WSW,248,2.0,6.0,86,0.00,,,0.00,,2013-02-17 17:31:00,
2013-02-17 09:41:00,44.0,40.0,30.01,WSW,248,2.0,6.0,86,0.00,,,0.00,,2013-02-17 17:41:00,
2013-02-17 09:52:00,46.0,41.0,30.01,WSW,244,0.0,3.0,83,0.00,,,0.00,,2013-02-17 17:52:00,
2013-02-17 10:01:00,48.0,41.0,30.01,WSW,255,1.0,2.0,76,0.00,,,0.00,,2013-02-17 18:01:00,
2013-02-17 10:11:00,48.0,41.0,30.01,WSW,255,1.0,2.0,76,0.00,,,0.00,,2013-02-17 18:11:00,
2013-02-17 10:21:00,50.0,41.0,30.01,West,267,1.0,3.0,72,0.00,,,0.00,,2013-02-17 18:21:00,
2013-02-17 10:33:00,52.0,42.0,30.01,NW,318,0.0,2.0,68,0.00,,,0.00,,2013-02-17 18:33:00,
2013-02-17 10:42:00,52.0,42.0,30.01,NW,318,0.0,2.0,68,0.00,,,0.00,,2013-02-17 18:42:00,
2013-02-17 10:52:00,53.0,41.0,30.01,WNW,290,3.0,5.0,64,0.00,,,0.00,,2013-02-17 18:52:00,
2013-02-17 11:01:00,54.0,42.0,30.01,WSW,238,1.0,4.0,63,0.00,,,0.00,,2013-02-17 19:01:00,
2013-02-17 11:11:00,54.0,42.0,30.01,WSW,238,1.0,4.0,63,0.00,,,0.00,,2013-02-17 19:11:00,
2013-02-17 11:21:00,55.0,43.0,30.01,NNW,336,1.0,3.0,63,0.00,,,0.00,,2013-02-17 19:21:00,
2013-02-17 11:32:00,58.0,44.0,30.01,SW,229,1.0,3.0,59,0.00,,,0.00,,2013-02-17 19:32:00,
2013-02-17 11:41:00,58.0,44.0,30.01,SW,229,1.0,3.0,59,0.00,,,0.00,,2013-02-17 19:41:00,
2013-02-17 11:51:00,59.0,43.0,30.00,WSW,249,1.0,3.0,56,0.00,,,0.00,,2013-02-17 19:51:00,
2013-02-17 12:01:00,61.0,45.0,30.00,West,267,1.0,3.0,55,0.00,,,0.00,,2013-02-17 20:01:00,
2013-02-17 12:11:00,61.0,45.0,30.00,West,267,1.0,3.0,55,0.00,,,0.00,,2013-02-17 20:11:00,
2013-02-17 12:21:00,62.0,45.0,30.00,SE,130,2.0,4.0,53,0.00,,,0.00,,2013-02-17 20:21:00,
2013-02-17 12:31:00,61.0,44.0,30.00,SE,140,3.0,8.0,54,0.00,,,0.00,,2013-02-17 20:31:00,
2013-02-17 12:42:00,61.0,44.0,30.00,SE,140,3.0,8.0,54,0.00,,,0.00,,2013-02-17 20:42:00,
2013-02-17 12:52:00,62.0,45.0,29.99,South,182,2.0,7.0,54,0.00,,,0.00,,2013-02-17 20:52:00,
2013-02-17 13:01:00,62.0,45.0,29.98,SW,221,2.0,4.0,54,0.00,,,0.00,,2013-02-17 21:01:00,
2013-02-17 13:11:00,62.0,45.0,29.98,SW,221,2.0,4.0,54,0.00,,,0.00,,2013-02-17 21:11:00,
2013-02-17 13:21:00,61.0,44.0,29.97,SSE,163,2.0,7.0,53,0.00,,,0.00,,2013-02-17 21:21:00,
2013-02-17 13:31:00,62.0,43.0,29.96,SSW,193,2.0,4.0,49,0.00,,,0.00,,2013-02-17 21:31:00,
2013-02-17 13:41:00,62.0,43.0,29.96,SSW,193,2.0,4.0,49,0.00,,,0.00,,2013-02-17 21:41:00,
2013-02-17 13:52:00,62.0,42.0,29.96,SSE,163,4.0,6.0,48,0.00,,,0.00,,2013-02-17 21:52:00,
2013-02-17 14:01:00,62.0,44.0,29.96,SSE,159,2.0,5.0,51,0.00,,,0.00,,2013-02-17 22:01:00,
2013-02-17 14:11:00,62.0,44.0,29.96,SSE,159,2.0,5.0,51,0.00,,,0.00,,2013-02-17 22:11:00,
2013-02-17 14:21:00,62.0,43.0,29.96,South,188,2.0,7.0,49,0.00,,,0.00,,2013-02-17 22:21:00,
2013-02-17 14:32:00,62.0,43.0,29.96,SSW,209,3.0,7.0,49,0.00,,,0.00,,2013-02-17 22:32:00,
2013-02-17 14:41:00,62.0,43.0,29.96,SSW,209,3.0,7.0,49,0.00,,,0.00,,2013-02-17 22:41:00,
2013-02-17 14:52:00,62.0,43.0,29.96,South,175,3.0,7.0,49,0.00,,,0.00,,2013-02-17 22:52:00,
2013-02-17 15:01:00,62.0,43.0,29.95,South,184,2.0,5.0,50,0.00,,,0.00,,2013-02-17 23:01:00,
2013-02-17 15:11:00,62.0,43.0,29.95,South,184,2.0,5.0,50,0.00,,,0.00,,2013-02-17 23:11:00,
2013-02-17 15:21:00,62.0,43.0,29.95,SSE,151,2.0,5.0,50,0.00,,,0.00,,2013-02-17 23:21:00,
2013-02-17 15:31:00,62.0,43.0,29.95,SSW,193,2.0,5.0,50,0.00,,,0.00,,2013-02-17 23:31:00,
2013-02-17 15:41:00,62.0,43.0,29.95,SSW,193,2.0,5.0,50,0.00,,,0.00,,2013-02-17 23:41:00,
2013-02-17 15:52:00,62.0,43.0,29.95,SSW,204,2.0,6.0,50,0.00,,,0.00,,2013-02-17 23:52:00,
2013-02-17 16:01:00,62.0,43.0,29.95,SSW,192,3.0,6.0,49,0.00,,,0.00,,2013-02-18 00:01:00,
2013-02-17 16:11:00,62.0,43.0,29.95,SSW,192,3.0,6.0,49,0.00,,,0.00,,2013-02-18 00:11:00,
2013-02-17 16:22:00,62.0,43.0,29.95,SSW,192,3.0,6.0,49,0.00,,,0.00,,2013-02-18 00:22:00,
2013-02-17 16:31:00,61.0,41.0,29.94,South,180,2.0,6.0,48,0.00,,,0.00,,2013-02-18 00:31:00,
2013-02-17 16:42:00,61.0,41.0,29.94,South,180,2.0,6.0,48,0.00,,,0.00,,2013-02-18 00:42:00,
2013-02-17 16:52:00,59.0,39.0,29.94,SSW,198,3.0,6.0,48,0.00,,,0.00,,2013-02-18 00:52:00,
2013-02-17 17:01:00,58.0,39.0,29.94,SSE,161,2.0,7.0,50,0.00,,,0.00,,2013-02-18 01:01:00,
2013-02-17 17:11:00,58.0,39.0,29.94,SSE,161,2.0,7.0,50,0.00,,,0.00,,2013-02-18 01:11:00,
2013-02-17 17:21:00,57.0,41.0,29.94,SE,130,1.0,5.0,55,0.00,,,0.00,,2013-02-18 01:21:00,
2013-02-17 17:31:00,56.0,39.0,29.94,ESE,122,1.0,3.0,53,0.00,,,0.00,,2013-02-18 01:31:00,
2013-02-17 17:41:00,56.0,39.0,29.94,ESE,122,1.0,3.0,53,0.00,,,0.00,,2013-02-18 01:41:00,
2013-02-17 17:51:00,55.0,39.0,29.94,East,98,0.0,4.0,54,0.00,,,0.00,,2013-02-18 01:51:00,
2013-02-17 18:01:00,54.0,39.0,29.94,ESE,106,0.0,2.0,57,0.00,,,0.00,,2013-02-18 02:01:00,
2013-02-17 18:11:00,54.0,39.0,29.94,ESE,106,0.0,2.0,57,0.00,,,0.00,,2013-02-18 02:11:00,
2013-02-17 18:21:00,52.0,39.0,29.94,ESE,106,0.0,1.0,61,0.00,,,0.00,,2013-02-18 02:21:00,
2013-02-17 18:31:00,51.0,39.0,29.94,ESE,106,1.0,2.0,64,0.00,,,0.00,,2013-02-18 02:31:00,
2013-02-17 18:41:00,51.0,39.0,29.94,ESE,106,1.0,2.0,64,0.00,,,0.00,,2013-02-18 02:41:00,
2013-02-17 18:52:00,50.0,38.0,29.94,ESE,117,1.0,3.0,64,0.00,,,0.00,,2013-02-18 02:52:00,
2013-02-17 19:01:00,49.0,39.0,29.95,ESE,113,1.0,3.0,67,0.00,,,0.00,,2013-02-18 03:01:00,
2013-02-17 19:11:00,49.0,39.0,29.95,ESE,113,1.0,3.0,67,0.00,,,0.00,,2013-02-18 03:11:00,
2013-02-17 19:21:00,47.0,38.0,29.95,ESE,113,1.0,2.0,70,0.00,,,0.00,,2013-02-18 03:21:00,
2013-02-17 19:31:00,46.0,37.0,29.96,ESE,113,0.0,1.0,72,0.00,,,0.00,,2013-02-18 03:31:00,
2013-02-17 19:42:00,46.0,37.0,29.96,ESE,113,0.0,1.0,72,0.00,,,0.00,,2013-02-18 03:42:00,
2013-02-17 19:51:00,44.0,36.0,29.95,ESE,113,0.0,1.0,74,0.00,,,0.00,,2013-02-18 03:51:00,
2013-02-17 20:01:00,44.0,36.0,29.95,ESE,113,0.0,1.0,74,0.00,,,0.00,,2013-02-18 04:01:00,
2013-02-17 20:11:00,44.0,36.0,29.95,ESE,113,0.0,1.0,74,0.00,,,0.00,,2013-02-18 04:11:00,
2013-02-17 20:21:00,44.0,36.0,29.95,ESE,113,0.0,1.0,74,0.00,,,0.00,,2013-02-18 04:21:00,